Wilma — V2AB2 — position and weather

sailwx.info

Track history (hours):
 
Tides and Currents Weather Stations Pressure Air Temp Water Temp Dewpoint Dewpoint Depression Visibility Wind Speed Wind Dir Waves Ship Positions

Wilma

Last reported at 2015-Mar-30 03:32 UTC. Time now 2015-Mar-30 04:30 UTC.
Position N 51°15' E 004°22'.

Length 152 m; draft 6.9 m.

Type: Ship. MMSI: 304080754.

Date/timePositionNaut miles runAvg speedWind from/ knotsBaromVisibWave heightAir tempDewpointWater temp
2015-Mar-30 03:32N 51°15' E 004°22'0 0.0
2015-Mar-30 02:29N 51°15' E 004°22'0 0.0
2015-Mar-30 01:31N 51°15' E 004°22'0 0.0
2015-Mar-30 00:31N 51°15' E 004°22'0 0.0
2015-Mar-29 23:33N 51°15' E 004°22'0 0.0
2015-Mar-29 22:33N 51°15' E 004°22'0 0.0
2015-Mar-29 21:32N 51°15' E 004°22'0 0.0
2015-Mar-29 20:32N 51°15' E 004°22'0 0.0
2015-Mar-29 19:33N 51°15' E 004°22'0 0.0
2015-Mar-29 18:31N 51°15' E 004°22'0 0.0
2015-Mar-29 17:31N 51°15' E 004°22'0 0.0
2015-Mar-29 16:33N 51°15' E 004°22'0 0.0
2015-Mar-29 15:33N 51°15' E 004°22'0 0.0
2015-Mar-29 14:32N 51°15' E 004°22'0 0.0
2015-Mar-29 13:32N 51°15' E 004°22'0 0.0
2015-Mar-29 12:31N 51°15' E 004°22'0 0.0
2015-Mar-29 11:31N 51°15' E 004°22'0 0.0
2015-Mar-29 10:31N 51°15' E 004°22'0 0.0
2015-Mar-29 09:33N 51°15' E 004°22'0 0.0
2015-Mar-29 08:30N 51°15' E 004°22'0 0.0
2015-Mar-29 07:32N 51°15' E 004°22'0 0.0
2015-Mar-29 06:32N 51°15' E 004°22'0 0.0
2015-Mar-29 05:31N 51°15' E 004°22'0 0.0
2015-Mar-29 04:31N 51°15' E 004°22'0 0.0
2015-Mar-29 03:32N 51°15' E 004°22'0 0.0
2015-Mar-29 02:33N 51°15' E 004°22'0 0.0
2015-Mar-29 01:33N 51°15' E 004°22'0 0.0
2015-Mar-29 00:32N 51°15' E 004°22'0 0.0
2015-Mar-28 23:32N 51°15' E 004°22'0 0.0
2015-Mar-28 22:31N 51°15' E 004°22'0 0.0
2015-Mar-28 21:31N 51°15' E 004°22'0 0.0
2015-Mar-28 20:34N 51°15' E 004°22'0 0.0
2015-Mar-28 19:33N 51°15' E 004°22'0 0.0
2015-Mar-28 18:33N 51°15' E 004°22'0 0.0
2015-Mar-28 17:32N 51°15' E 004°22'0 0.1
2015-Mar-28 16:33N 51°15' E 004°22'2 2.3
2015-Mar-28 15:33N 51°17' E 004°20'1 0.8
2015-Mar-28 14:34N 51°17' E 004°19'8 7.8
2015-Mar-28 13:31N 51°24' E 004°11'7 7.2
2015-Mar-28 12:34N 51°26' E 004°01'9 9.1
2015-Mar-28 11:33N 51°21' E 003°49'1110.7
2015-Mar-28 10:33N 51°26' E 003°34'1111.1
2015-Mar-28 09:34N 51°35' E 003°23'12 2.4
2015-Mar-28 04:29N 51°47' E 003°19'0 0.0
2015-Mar-28 03:23N 51°47' E 003°19'0 0.0
2015-Mar-28 02:31N 51°47' E 003°19'0 0.1
2015-Mar-28 01:15N 51°47' E 003°19'0 0.0
2015-Mar-27 17:24N 51°47' E 003°19'0 0.0
2015-Mar-27 07:13N 51°47' E 003°19'0 0.0
2015-Mar-26 22:18N 51°47' E 003°19'0 0.0
2015-Mar-26 21:09N 51°47' E 003°19'0 0.0
2015-Mar-25 23:33N 51°47' E 003°19'0 0.0
2015-Mar-25 22:26N 51°47' E 003°19'0 0.0
2015-Mar-25 21:20N 51°47' E 003°19'0 0.1
2015-Mar-25 20:28N 51°47' E 003°19'0 0.0
2015-Mar-25 19:31N 51°47' E 003°19'0 0.0
2015-Mar-25 18:27N 51°47' E 003°19'0 0.0
2015-Mar-25 14:26N 51°47' E 003°19'0 0.0
2015-Mar-25 09:11N 51°47' E 003°19'0 0.0
2015-Mar-25 08:17N 51°47' E 003°19'0 0.0
2015-Mar-24 15:19N 51°47' E 003°19'57 9.8
2015-Mar-24 09:30N 52°42' E 003°39'5914.8
2015-Mar-24 05:33N 53°29' E 004°38'1817.6
2015-Mar-24 04:33N 53°36' E 005°05'1818.3
2015-Mar-24 03:33N 53°42' E 005°34'1818.1
2015-Mar-24 02:33N 53°48' E 006°04'5116.8
2015-Mar-23 23:33N 54°00' E 007°27'1615.7
2015-Mar-23 22:33N 54°02' E 007°53'1515.1
2015-Mar-23 21:33N 53°60' E 008°19'1717.3
2015-Mar-23 20:34N 53°52' E 008°44'1716.9
2015-Mar-23 19:33N 53°53' E 009°13'1918.5
2015-Mar-23 18:33N 53°38' E 009°32'1414.1
2015-Mar-23 17:32N 53°33' E 009°54'4 3.4
2015-Mar-23 16:19N 53°29' E 009°59'0 0.0
2015-Mar-23 05:23N 53°29' E 009°59'0 0.0
2015-Mar-23 04:26N 53°29' E 009°59'0 0.0
2015-Mar-22 21:19N 53°29' E 009°59'0 0.0
2015-Mar-22 11:15N 53°29' E 009°59'0 0.0
2015-Mar-22 08:20N 53°29' E 009°59'0 0.0
2015-Mar-22 07:30N 53°29' E 009°59'0 0.0
2015-Mar-22 06:33N 53°29' E 009°59'0 0.0
2015-Mar-22 05:33N 53°29' E 009°59'0 0.0
2015-Mar-22 04:31N 53°29' E 009°59'0 0.0
2015-Mar-22 03:33N 53°29' E 009°59'0 0.0
2015-Mar-22 02:33N 53°29' E 009°59'0 0.0
2015-Mar-22 01:33N 53°29' E 009°59'0 0.0
2015-Mar-22 00:25N 53°29' E 009°59'0 0.0
2015-Mar-21 23:31N 53°29' E 009°59'0 0.0
2015-Mar-21 22:29N 53°29' E 009°59'0 0.0
2015-Mar-21 21:32N 53°29' E 009°59'0 0.0
2015-Mar-21 20:28N 53°29' E 009°59'0 0.0
2015-Mar-21 19:28N 53°29' E 009°59'2 2.3
2015-Mar-21 18:33N 53°31' E 009°57'8 7.9
2015-Mar-21 17:30N 53°34' E 009°44'1313.5
2015-Mar-21 16:33N 53°43' E 009°28'1515.0
2015-Mar-21 15:33N 53°53' E 009°09'1514.9
2015-Mar-21 14:33N 53°52' E 008°44'1413.7
2015-Mar-21 13:33N 53°59' E 008°24'1411.4
2015-Mar-21 12:19N 53°58' E 008°00'7 9.2
2015-Mar-21 11:33N 53°56' E 007°49'9 9.5
2015-Mar-21 10:33N 53°53' E 007°33'6 5.6
2015-Mar-21 09:34N 53°51' E 007°25'7 5.9
2015-Mar-21 08:22N 53°49' E 007°13'3 4.1
2015-Mar-21 07:33N 53°49' E 007°07'4013.1
2015-Mar-21 04:27N 53°40' E 006°01'1112.0
2015-Mar-21 03:33N 53°37' E 005°44'1211.7
2015-Mar-21 02:33N 53°33' E 005°25'1111.4
2015-Mar-21 01:33N 53°29' E 005°07'1211.5
2015-Mar-21 00:30N 53°25' E 004°48'3711.4
2015-Mar-20 21:18N 52°53' E 004°16'1411.6
2015-Mar-20 20:08N 52°42' E 004°03'711.7
2015-Mar-20 19:32N 52°36' E 003°58'1211.9
2015-Mar-20 18:30N 52°24' E 003°53'1212.3
2015-Mar-20 17:33N 52°12' E 003°54'1110.7
2015-Mar-20 16:33N 52°02' E 003°58'1010.5
2015-Mar-20 15:33N 51°56' E 004°12'9 9.0
2015-Mar-20 14:34N 51°54' E 004°26'1 0.8
2015-Mar-20 13:33N 51°54' E 004°27'0 0.0
2015-Mar-20 12:34N 51°54' E 004°27'0 0.0
2015-Mar-20 11:33N 51°54' E 004°27'0 0.0
2015-Mar-20 10:33N 51°54' E 004°27'0 0.0
2015-Mar-20 09:33N 51°54' E 004°27'0 0.0
2015-Mar-20 08:34N 51°54' E 004°27'0 0.0
2015-Mar-20 07:33N 51°54' E 004°27'0 0.0
2015-Mar-20 06:33N 51°54' E 004°27'0 0.0
2015-Mar-20 05:33N 51°54' E 004°27'0 0.0
2015-Mar-20 04:33N 51°54' E 004°27'0 0.0
2015-Mar-20 03:33N 51°54' E 004°27'  
Track history (hours):
 
Tides and Currents Weather Stations Pressure Air Temp Water Temp Dewpoint Dewpoint Depression Visibility Wind Speed Wind Dir Waves Ship Positions

Wilma

Last reported at 2015-Mar-30 03:32 UTC. Time now 2015-Mar-30 04:30 UTC.
Position N 51°15' E 004°22'.

Length 152 m; draft 6.9 m.

Type: Ship. MMSI: 304080754.

Date/timePositionNaut miles runAvg speedWind from/ knotsBaromVisibWave heightAir tempDewpointWater temp
2015-Mar-30 03:32N 51°15' E 004°22'0 0.0
2015-Mar-30 02:29N 51°15' E 004°22'0 0.0
2015-Mar-30 01:31N 51°15' E 004°22'0 0.0
2015-Mar-30 00:31N 51°15' E 004°22'0 0.0
2015-Mar-29 23:33N 51°15' E 004°22'0 0.0
2015-Mar-29 22:33N 51°15' E 004°22'0 0.0
2015-Mar-29 21:32N 51°15' E 004°22'0 0.0
2015-Mar-29 20:32N 51°15' E 004°22'0 0.0
2015-Mar-29 19:33N 51°15' E 004°22'0 0.0
2015-Mar-29 18:31N 51°15' E 004°22'0 0.0
2015-Mar-29 17:31N 51°15' E 004°22'0 0.0
2015-Mar-29 16:33N 51°15' E 004°22'0 0.0
2015-Mar-29 15:33N 51°15' E 004°22'0 0.0
2015-Mar-29 14:32N 51°15' E 004°22'0 0.0
2015-Mar-29 13:32N 51°15' E 004°22'0 0.0
2015-Mar-29 12:31N 51°15' E 004°22'0 0.0
2015-Mar-29 11:31N 51°15' E 004°22'0 0.0
2015-Mar-29 10:31N 51°15' E 004°22'0 0.0
2015-Mar-29 09:33N 51°15' E 004°22'0 0.0
2015-Mar-29 08:30N 51°15' E 004°22'0 0.0
2015-Mar-29 07:32N 51°15' E 004°22'0 0.0
2015-Mar-29 06:32N 51°15' E 004°22'0 0.0
2015-Mar-29 05:31N 51°15' E 004°22'0 0.0
2015-Mar-29 04:31N 51°15' E 004°22'0 0.0
2015-Mar-29 03:32N 51°15' E 004°22'0 0.0
2015-Mar-29 02:33N 51°15' E 004°22'0 0.0
2015-Mar-29 01:33N 51°15' E 004°22'0 0.0
2015-Mar-29 00:32N 51°15' E 004°22'0 0.0
2015-Mar-28 23:32N 51°15' E 004°22'0 0.0
2015-Mar-28 22:31N 51°15' E 004°22'0 0.0
2015-Mar-28 21:31N 51°15' E 004°22'0 0.0
2015-Mar-28 20:34N 51°15' E 004°22'0 0.0
2015-Mar-28 19:33N 51°15' E 004°22'0 0.0
2015-Mar-28 18:33N 51°15' E 004°22'0 0.0
2015-Mar-28 17:32N 51°15' E 004°22'0 0.1
2015-Mar-28 16:33N 51°15' E 004°22'2 2.3
2015-Mar-28 15:33N 51°17' E 004°20'1 0.8
2015-Mar-28 14:34N 51°17' E 004°19'8 7.8
2015-Mar-28 13:31N 51°24' E 004°11'7 7.2
2015-Mar-28 12:34N 51°26' E 004°01'9 9.1
2015-Mar-28 11:33N 51°21' E 003°49'1110.7
2015-Mar-28 10:33N 51°26' E 003°34'1111.1
2015-Mar-28 09:34N 51°35' E 003°23'12 2.4
2015-Mar-28 04:29N 51°47' E 003°19'0 0.0
2015-Mar-28 03:23N 51°47' E 003°19'0 0.0
2015-Mar-28 02:31N 51°47' E 003°19'0 0.1
2015-Mar-28 01:15N 51°47' E 003°19'0 0.0
2015-Mar-27 17:24N 51°47' E 003°19'0 0.0
2015-Mar-27 07:13N 51°47' E 003°19'0 0.0
2015-Mar-26 22:18N 51°47' E 003°19'0 0.0
2015-Mar-26 21:09N 51°47' E 003°19'0 0.0
2015-Mar-25 23:33N 51°47' E 003°19'0 0.0
2015-Mar-25 22:26N 51°47' E 003°19'0 0.0
2015-Mar-25 21:20N 51°47' E 003°19'0 0.1
2015-Mar-25 20:28N 51°47' E 003°19'0 0.0
2015-Mar-25 19:31N 51°47' E 003°19'0 0.0
2015-Mar-25 18:27N 51°47' E 003°19'0 0.0
2015-Mar-25 14:26N 51°47' E 003°19'0 0.0
2015-Mar-25 09:11N 51°47' E 003°19'0 0.0
2015-Mar-25 08:17N 51°47' E 003°19'0 0.0
2015-Mar-24 15:19N 51°47' E 003°19'57 9.8
2015-Mar-24 09:30N 52°42' E 003°39'5914.8
2015-Mar-24 05:33N 53°29' E 004°38'1817.6
2015-Mar-24 04:33N 53°36' E 005°05'1818.3
2015-Mar-24 03:33N 53°42' E 005°34'1818.1
2015-Mar-24 02:33N 53°48' E 006°04'5116.8
2015-Mar-23 23:33N 54°00' E 007°27'1615.7
2015-Mar-23 22:33N 54°02' E 007°53'1515.1
2015-Mar-23 21:33N 53°60' E 008°19'1717.3
2015-Mar-23 20:34N 53°52' E 008°44'1716.9
2015-Mar-23 19:33N 53°53' E 009°13'1918.5
2015-Mar-23 18:33N 53°38' E 009°32'1414.1
2015-Mar-23 17:32N 53°33' E 009°54'4 3.4
2015-Mar-23 16:19N 53°29' E 009°59'0 0.0
2015-Mar-23 05:23N 53°29' E 009°59'0 0.0
2015-Mar-23 04:26N 53°29' E 009°59'0 0.0
2015-Mar-22 21:19N 53°29' E 009°59'0 0.0
2015-Mar-22 11:15N 53°29' E 009°59'0 0.0
2015-Mar-22 08:20N 53°29' E 009°59'0 0.0
2015-Mar-22 07:30N 53°29' E 009°59'0 0.0
2015-Mar-22 06:33N 53°29' E 009°59'0 0.0
2015-Mar-22 05:33N 53°29' E 009°59'0 0.0
2015-Mar-22 04:31N 53°29' E 009°59'0 0.0
2015-Mar-22 03:33N 53°29' E 009°59'0 0.0
2015-Mar-22 02:33N 53°29' E 009°59'0 0.0
2015-Mar-22 01:33N 53°29' E 009°59'0 0.0
2015-Mar-22 00:25N 53°29' E 009°59'0 0.0
2015-Mar-21 23:31N 53°29' E 009°59'0 0.0
2015-Mar-21 22:29N 53°29' E 009°59'0 0.0
2015-Mar-21 21:32N 53°29' E 009°59'0 0.0
2015-Mar-21 20:28N 53°29' E 009°59'0 0.0
2015-Mar-21 19:28N 53°29' E 009°59'2 2.3
2015-Mar-21 18:33N 53°31' E 009°57'8 7.9
2015-Mar-21 17:30N 53°34' E 009°44'1313.5
2015-Mar-21 16:33N 53°43' E 009°28'1515.0
2015-Mar-21 15:33N 53°53' E 009°09'1514.9
2015-Mar-21 14:33N 53°52' E 008°44'1413.7
2015-Mar-21 13:33N 53°59' E 008°24'1411.4
2015-Mar-21 12:19N 53°58' E 008°00'7 9.2
2015-Mar-21 11:33N 53°56' E 007°49'9 9.5
2015-Mar-21 10:33N 53°53' E 007°33'6 5.6
2015-Mar-21 09:34N 53°51' E 007°25'7 5.9
2015-Mar-21 08:22N 53°49' E 007°13'3 4.1
2015-Mar-21 07:33N 53°49' E 007°07'4013.1
2015-Mar-21 04:27N 53°40' E 006°01'1112.0
2015-Mar-21 03:33N 53°37' E 005°44'1211.7
2015-Mar-21 02:33N 53°33' E 005°25'1111.4
2015-Mar-21 01:33N 53°29' E 005°07'1211.5
2015-Mar-21 00:30N 53°25' E 004°48'3711.4
2015-Mar-20 21:18N 52°53' E 004°16'1411.6
2015-Mar-20 20:08N 52°42' E 004°03'711.7
2015-Mar-20 19:32N 52°36' E 003°58'1211.9
2015-Mar-20 18:30N 52°24' E 003°53'1212.3
2015-Mar-20 17:33N 52°12' E 003°54'1110.7
2015-Mar-20 16:33N 52°02' E 003°58'1010.5
2015-Mar-20 15:33N 51°56' E 004°12'9 9.0
2015-Mar-20 14:34N 51°54' E 004°26'1 0.8
2015-Mar-20 13:33N 51°54' E 004°27'0 0.0
2015-Mar-20 12:34N 51°54' E 004°27'0 0.0
2015-Mar-20 11:33N 51°54' E 004°27'0 0.0
2015-Mar-20 10:33N 51°54' E 004°27'0 0.0
2015-Mar-20 09:33N 51°54' E 004°27'0 0.0
2015-Mar-20 08:34N 51°54' E 004°27'0 0.0
2015-Mar-20 07:33N 51°54' E 004°27'0 0.0
2015-Mar-20 06:33N 51°54' E 004°27'0 0.0
2015-Mar-20 05:33N 51°54' E 004°27'0 0.0
2015-Mar-20 04:33N 51°54' E 004°27'0 0.0
2015-Mar-20 03:33N 51°54' E 004°27'  

Dump ship's entire track history